createdAt,value
2022-08-03T00:01:53.066Z,100760.59
2022-08-03T00:04:33.990Z,100739.06
2022-08-03T00:07:03.348Z,100743.13
2022-08-03T00:09:35.847Z,100735.34
2022-08-03T00:12:05.184Z,100757.66
2022-08-03T00:14:42.281Z,100753.34
2022-08-03T00:17:12.371Z,100744.28
2022-08-03T00:19:49.270Z,100771.53
2022-08-03T00:22:18.182Z,100765.16
2022-08-03T00:24:49.026Z,100739.38
2022-08-03T00:27:17.524Z,100739.09
2022-08-03T00:30:00.176Z,100749.56
2022-08-03T00:32:30.211Z,100759.50
2022-08-03T00:35:16.359Z,100741.38
2022-08-03T00:37:54.256Z,100757.47
2022-08-03T00:40:23.085Z,100757.63
2022-08-03T00:42:58.302Z,100746.63
2022-08-03T00:45:28.562Z,100733.69
2022-08-03T00:47:59.499Z,100737.47
2022-08-03T00:50:38.580Z,100759.78
2022-08-03T00:53:12.104Z,100753.59
2022-08-03T00:55:41.684Z,100750.31
2022-08-03T00:58:13.087Z,100762.19
2022-08-03T01:00:42.027Z,100741.16
2022-08-03T01:03:14.637Z,100735.47
2022-08-03T01:06:13.397Z,100769.69
2022-08-03T01:08:49.078Z,100753.50
2022-08-03T01:11:27.133Z,100742.28
2022-08-03T01:14:18.397Z,100748.19
2022-08-03T01:16:57.057Z,100768.28
2022-08-03T01:19:42.320Z,100762.41
2022-08-03T01:22:38.349Z,100765.72
2022-08-03T01:25:15.414Z,100750.88
2022-08-03T01:27:58.884Z,100746.88
2022-08-03T01:30:36.504Z,100767.56
2022-08-03T01:33:08.125Z,100759.69
2022-08-03T01:35:48.386Z,100728.59
2022-08-03T01:38:25.644Z,100743.38
2022-08-03T01:41:00.428Z,100754.13
2022-08-03T01:44:28.687Z,100729.69
2022-08-03T01:46:29.383Z,100751.72
2022-08-03T01:49:09.399Z,100739.06
2022-08-03T01:52:03.476Z,100763.00
2022-08-03T01:54:37.248Z,100741.13
2022-08-03T01:57:09.887Z,100763.00
2022-08-03T02:02:34.606Z,100758.44
2022-08-03T02:05:11.783Z,100749.75
2022-08-03T02:07:43.127Z,100741.75
2022-08-03T02:10:17.117Z,100745.75
2022-08-03T02:13:10.706Z,100732.53
2022-08-03T02:15:42.391Z,100750.81
2022-08-03T02:18:19.033Z,100738.34
2022-08-03T02:20:49.704Z,100747.88
2022-08-03T02:23:19.856Z,100751.28
2022-08-03T02:25:57.211Z,100764.22
2022-08-03T02:28:40.360Z,100729.81
2022-08-03T02:31:14.904Z,100759.31
2022-08-03T02:33:55.144Z,100759.34
2022-08-03T02:40:43.339Z,100763.94
2022-08-03T02:43:12.859Z,100760.78
2022-08-03T02:45:48.929Z,100765.78
2022-08-03T02:48:25.598Z,100750.72
2022-08-03T02:51:04.606Z,100736.81
2022-08-03T02:53:35.827Z,100743.00
2022-08-03T02:56:07.557Z,100763.00
2022-08-03T02:58:39.029Z,100772.59
2022-08-03T03:01:09.625Z,100776.59
2022-08-03T03:03:44.682Z,100738.44
2022-08-03T03:06:20.316Z,100754.88
2022-08-03T03:08:57.894Z,100743.31
2022-08-03T03:11:31.261Z,100783.75
2022-08-03T03:14:01.053Z,100773.13
2022-08-03T03:16:33.497Z,100779.25
2022-08-03T03:19:03.882Z,100758.66
2022-08-03T03:21:39.080Z,100758.50
2022-08-03T03:24:10.371Z,100748.47
2022-08-03T03:26:42.501Z,100790.13
2022-08-03T03:29:10.962Z,100776.38
2022-08-03T03:31:39.973Z,100775.34
2022-08-03T03:34:08.446Z,100768.41
2022-08-03T03:36:39.104Z,100768.97
2022-08-03T03:39:15.676Z,100746.13
2022-08-03T03:41:44.961Z,100746.91
2022-08-03T03:44:14.558Z,100774.94
2022-08-03T03:46:43.461Z,100775.44
2022-08-03T03:49:12.264Z,100766.28
2022-08-03T03:51:42.759Z,100778.97
2022-08-03T03:54:12.683Z,100752.44
2022-08-03T03:56:41.655Z,100765.88
2022-08-03T03:59:10.795Z,100782.91
2022-08-03T04:01:41.766Z,100762.81
2022-08-03T04:04:35.523Z,100754.34
2022-08-03T04:07:24.791Z,100784.28
2022-08-03T04:10:14.493Z,100757.72
2022-08-03T04:12:50.484Z,100781.44
2022-08-03T04:15:23.885Z,100775.50
2022-08-03T04:17:55.695Z,100780.00
2022-08-03T04:20:29.757Z,100796.63
2022-08-03T04:23:02.288Z,100784.25
2022-08-03T04:25:36.293Z,100798.81
2022-08-03T04:28:30.854Z,100797.41
2022-08-03T04:30:58.534Z,100797.16
2022-08-03T04:33:29.697Z,100814.97
2022-08-03T04:36:04.382Z,100798.81
2022-08-03T04:38:40.012Z,100778.38
2022-08-03T04:41:11.179Z,100801.56
2022-08-03T04:43:42.972Z,100790.25
2022-08-03T04:46:14.742Z,100797.34
2022-08-03T04:48:44.904Z,100796.44
2022-08-03T04:51:16.752Z,100823.09
2022-08-03T04:53:47.220Z,100811.34
2022-08-03T04:56:16.128Z,100818.16
2022-08-03T04:58:44.712Z,100809.81
2022-08-03T05:01:12.924Z,100822.72
2022-08-03T05:03:42.526Z,100794.56
2022-08-03T05:06:11.795Z,100799.97
2022-08-03T05:08:45.908Z,100806.16
2022-08-03T05:11:21.003Z,100801.28
2022-08-03T05:13:50.802Z,100792.69
2022-08-03T05:16:20.092Z,100804.03
2022-08-03T05:18:49.795Z,100814.03
2022-08-03T05:21:19.796Z,100813.53
2022-08-03T05:23:49.706Z,100821.63
2022-08-03T05:26:20.248Z,100821.63
2022-08-03T05:28:51.332Z,100816.25
2022-08-03T05:31:21.611Z,100817.66
2022-08-03T05:33:50.512Z,100815.22
2022-08-03T05:36:18.776Z,100799.84
2022-08-03T05:38:47.552Z,100804.97
2022-08-03T05:41:21.289Z,100827.56
2022-08-03T05:43:56.444Z,100813.97
2022-08-03T05:46:25.845Z,100839.00
2022-08-03T05:48:58.220Z,100822.38
2022-08-03T05:51:26.644Z,100824.78
2022-08-03T05:53:54.771Z,100841.66
2022-08-03T05:56:27.002Z,100835.72
2022-08-03T05:59:16.302Z,100841.13
2022-08-03T06:01:49.853Z,100826.28
2022-08-03T06:04:18.518Z,100822.19
2022-08-03T06:06:46.732Z,100841.50
2022-08-03T06:09:18.559Z,100834.56
2022-08-03T06:11:50.378Z,100827.16
2022-08-03T06:14:26.344Z,100854.28
2022-08-03T06:16:54.763Z,100844.25
2022-08-03T06:19:26.005Z,100836.47
2022-08-03T06:21:54.371Z,100843.25
2022-08-03T06:24:25.039Z,100849.00
2022-08-03T06:26:59.014Z,100834.44
2022-08-03T06:32:17.470Z,100848.25
2022-08-03T06:37:30.536Z,100848.97
2022-08-03T06:39:59.731Z,100858.13
2022-08-03T06:42:36.413Z,100832.78
2022-08-03T06:45:19.401Z,100844.50
2022-08-03T06:47:48.121Z,100871.75
2022-08-03T06:50:25.998Z,100873.56
2022-08-03T06:53:06.427Z,100863.31
2022-08-03T06:55:42.272Z,100846.03
2022-08-03T06:58:22.161Z,100852.38
2022-08-03T07:00:54.534Z,100846.47
2022-08-03T07:03:25.059Z,100871.31
2022-08-03T07:05:53.719Z,100851.00
2022-08-03T07:08:33.623Z,100863.91
2022-08-03T07:11:03.063Z,100866.47
2022-08-03T07:13:34.918Z,100856.31
2022-08-03T07:16:06.461Z,100886.25
2022-08-03T07:18:35.094Z,100872.06
2022-08-03T07:21:03.977Z,100872.84
2022-08-03T07:23:35.037Z,100864.44
2022-08-03T07:26:04.228Z,100867.94
2022-08-03T07:28:36.530Z,100868.81
2022-08-03T07:31:12.769Z,100864.97
2022-08-03T07:39:31.529Z,100875.50
2022-08-03T07:42:09.763Z,100851.56
2022-08-03T07:44:50.893Z,100862.03
2022-08-03T07:47:38.575Z,100859.31
2022-08-03T07:50:10.306Z,100855.16
2022-08-03T08:02:22.316Z,100833.47
2022-08-03T08:11:09.683Z,100840.19
2022-08-03T08:20:31.745Z,100850.56
2022-08-03T08:23:03.510Z,100859.38
2022-08-03T08:25:43.737Z,100849.13
2022-08-03T08:28:32.650Z,100846.41
2022-08-03T08:31:12.504Z,100838.75
2022-08-03T08:40:25.481Z,100864.13
2022-08-03T08:46:01.062Z,100866.59
2022-08-03T08:52:01.151Z,100862.03
2022-08-03T08:54:38.234Z,100851.91
2022-08-03T08:57:40.513Z,100857.22
2022-08-03T09:00:16.489Z,100849.75
2022-08-03T09:02:47.637Z,100860.09
2022-08-03T09:05:36.238Z,100851.75
2022-08-03T09:08:15.191Z,100854.66
2022-08-03T09:16:56.487Z,100854.97
2022-08-03T09:23:14.027Z,100825.16
2022-08-03T09:33:02.193Z,100814.84
2022-08-03T09:38:28.243Z,100823.91
2022-08-03T09:41:00.266Z,100825.34
2022-08-03T09:43:59.622Z,100822.44
2022-08-03T09:46:57.337Z,100817.31
2022-08-03T09:49:33.210Z,100837.97
2022-08-03T09:52:33.646Z,100825.25
2022-08-03T09:56:34.313Z,100812.75
2022-08-03T09:58:54.005Z,100832.34
2022-08-03T10:01:34.530Z,100818.56
2022-08-03T10:13:48.120Z,100844.16
2022-08-03T10:32:40.407Z,100823.13
2022-08-03T10:35:21.569Z,100833.28
2022-08-03T10:44:55.963Z,100806.94
2022-08-03T10:48:56.347Z,100806.75
2022-08-03T10:55:03.546Z,100815.84
2022-08-03T10:57:58.921Z,100813.84
2022-08-03T11:00:53.639Z,100824.22
2022-08-03T11:03:23.977Z,100820.34
2022-08-03T11:05:55.182Z,100833.31
2022-08-03T11:11:43.165Z,100819.53
2022-08-03T11:14:22.893Z,100800.75
2022-08-03T11:26:15.885Z,100787.69
2022-08-03T11:31:56.840Z,100795.28
2022-08-03T11:34:29.951Z,100805.66
2022-08-03T11:40:42.421Z,100806.91
2022-08-03T11:43:48.534Z,100807.22
2022-08-03T11:46:41.776Z,100786.13
2022-08-03T11:51:59.209Z,100776.47
2022-08-03T11:59:00.903Z,100776.84
2022-08-03T12:03:42.260Z,100786.25
2022-08-03T12:06:20.142Z,100793.44
2022-08-03T12:08:50.752Z,100794.53
2022-08-03T12:11:20.887Z,100790.25
2022-08-03T12:14:26.826Z,100785.34
2022-08-03T12:16:52.147Z,100770.53
2022-08-03T12:19:36.750Z,100782.25
2022-08-03T12:25:02.737Z,100774.50
2022-08-03T12:30:24.417Z,100766.78
2022-08-03T12:32:58.806Z,100750.88
2022-08-03T12:35:31.683Z,100756.41
2022-08-03T12:38:06.021Z,100753.63
2022-08-03T12:40:41.664Z,100763.78
2022-08-03T12:49:03.619Z,100750.63
2022-08-03T12:51:36.898Z,100747.53
2022-08-03T12:54:09.588Z,100744.66
2022-08-03T12:59:41.447Z,100734.53
2022-08-03T13:02:26.294Z,100728.13
2022-08-03T13:04:58.558Z,100747.56
2022-08-03T13:07:31.852Z,100738.56
2022-08-03T13:12:36.893Z,100735.31
2022-08-03T13:15:07.349Z,100743.25
2022-08-03T13:20:18.476Z,100735.97
2022-08-03T13:22:52.876Z,100731.47
2022-08-03T13:33:13.108Z,100730.78
2022-08-03T13:38:30.017Z,100719.50
2022-08-03T13:41:04.844Z,100725.56
2022-08-03T13:43:34.197Z,100723.03
2022-08-03T13:46:06.869Z,100711.81
2022-08-03T13:48:40.489Z,100721.50
2022-08-03T13:53:49.928Z,100717.91
2022-08-03T13:56:20.083Z,100720.06
2022-08-03T13:58:53.384Z,100711.00
2022-08-03T14:01:53.471Z,100714.72
2022-08-03T14:04:21.789Z,100714.00
2022-08-03T14:06:51.234Z,100725.69
2022-08-03T14:09:26.383Z,100716.63
2022-08-03T14:12:08.379Z,100714.25
2022-08-03T14:14:37.883Z,100711.69
2022-08-03T14:17:06.290Z,100706.97
2022-08-03T14:19:40.580Z,100710.63
2022-08-03T14:22:26.129Z,100698.72
2022-08-03T14:30:00.853Z,100690.38
2022-08-03T14:32:29.695Z,100683.59
2022-08-03T14:35:00.955Z,100684.72
2022-08-03T14:37:34.044Z,100685.81
2022-08-03T14:42:36.594Z,100687.66
2022-08-03T14:45:09.291Z,100690.34
2022-08-03T14:50:36.454Z,100676.78
2022-08-03T14:52:58.811Z,100688.66
2022-08-03T14:55:38.629Z,100678.16
2022-08-03T14:58:22.426Z,100681.66
2022-08-03T15:00:55.341Z,100680.56
2022-08-03T15:03:25.624Z,100683.59
2022-08-03T15:05:57.185Z,100684.59
2022-08-03T15:08:28.026Z,100672.16
2022-08-03T15:10:59.835Z,100680.19
2022-08-03T15:13:29.637Z,100682.41
2022-08-03T15:15:58.679Z,100671.56
2022-08-03T15:18:29.908Z,100658.94
2022-08-03T15:20:58.274Z,100664.75
2022-08-03T15:26:30.757Z,100663.19
2022-08-03T15:31:24.928Z,100664.84
2022-08-03T15:33:53.875Z,100663.69
2022-08-03T15:36:21.878Z,100663.34
2022-08-03T15:38:50.503Z,100652.06
2022-08-03T15:41:19.716Z,100654.69
2022-08-03T15:43:48.426Z,100657.56
2022-08-03T15:48:48.109Z,100654.09
2022-08-03T15:51:19.927Z,100651.00
2022-08-03T15:53:51.831Z,100647.94
2022-08-03T15:56:20.417Z,100646.78
2022-08-03T15:59:03.990Z,100642.59
2022-08-03T16:01:42.576Z,100646.78
2022-08-03T16:04:11.373Z,100641.44
2022-08-03T16:06:39.405Z,100646.00
2022-08-03T16:09:23.138Z,100638.44
2022-08-03T16:12:03.134Z,100624.88
2022-08-03T16:14:44.890Z,100634.63
2022-08-03T16:19:49.971Z,100637.69
2022-08-03T16:24:47.254Z,100632.59
2022-08-03T16:27:56.773Z,100639.09
2022-08-03T16:30:17.032Z,100622.25
2022-08-03T16:35:25.065Z,100635.34
2022-08-03T16:37:56.873Z,100623.84
2022-08-03T16:43:18.931Z,100626.66
2022-08-03T16:45:53.701Z,100629.47
2022-08-03T16:48:26.852Z,100611.28
2022-08-03T16:50:58.933Z,100628.50
2022-08-03T16:54:05.787Z,100627.66
2022-08-03T16:56:33.779Z,100629.91
2022-08-03T16:59:09.368Z,100641.22
2022-08-03T17:01:41.757Z,100639.91
2022-08-03T17:04:17.197Z,100644.25
2022-08-03T17:06:49.408Z,100645.31
2022-08-03T17:11:52.109Z,100644.94
2022-08-03T17:14:28.319Z,100659.94
2022-08-03T17:17:01.878Z,100655.66
2022-08-03T17:19:35.983Z,100640.72
2022-08-03T17:22:07.720Z,100651.50
2022-08-03T17:24:44.089Z,100653.16
2022-08-03T17:28:50.362Z,100652.38
2022-08-03T17:30:13.410Z,100662.50
2022-08-03T17:32:57.119Z,100653.19
2022-08-03T17:35:38.707Z,100655.47
2022-08-03T17:38:13.804Z,100664.41
2022-08-03T17:40:52.163Z,100662.44
2022-08-03T17:44:14.169Z,100662.34
2022-08-03T17:46:26.305Z,100665.66
2022-08-03T17:48:59.417Z,100659.75
2022-08-03T17:51:32.803Z,100672.31
2022-08-03T17:54:18.143Z,100663.19
2022-08-03T17:57:22.451Z,100680.97
2022-08-03T18:00:27.163Z,100683.34
2022-08-03T18:03:21.785Z,100685.09
2022-08-03T18:06:10.956Z,100687.03
2022-08-03T18:08:43.808Z,100687.50
2022-08-03T18:11:22.829Z,100680.47
2022-08-03T18:14:09.918Z,100688.34
2022-08-03T18:16:52.479Z,100689.53
2022-08-03T18:20:02.792Z,100687.25
2022-08-03T18:25:09.364Z,100700.00
2022-08-03T18:27:47.560Z,100674.28
2022-08-03T18:30:16.955Z,100684.22
2022-08-03T18:33:00.491Z,100701.88
2022-08-03T18:35:53.499Z,100703.41
2022-08-03T18:38:23.813Z,100715.81
2022-08-03T18:40:53.062Z,100691.34
2022-08-03T18:43:47.395Z,100723.44
2022-08-03T18:46:32.812Z,100696.31
2022-08-03T18:49:12.195Z,100723.22
2022-08-03T18:51:43.082Z,100708.16
2022-08-03T18:54:51.748Z,100702.41
2022-08-03T18:57:19.697Z,100725.09
2022-08-03T19:00:00.861Z,100718.38
2022-08-03T19:02:39.346Z,100728.63
2022-08-03T19:05:12.640Z,100707.03
2022-08-03T19:07:58.040Z,100723.22
2022-08-03T19:10:35.306Z,100701.06
2022-08-03T19:13:14.006Z,100700.78
2022-08-03T19:15:51.463Z,100695.19
2022-08-03T19:18:23.573Z,100696.81
2022-08-03T19:20:54.759Z,100715.44
2022-08-03T19:23:30.783Z,100720.22
2022-08-03T19:26:04.524Z,100730.25
2022-08-03T19:28:58.314Z,100729.28
2022-08-03T19:31:31.005Z,100710.41
2022-08-03T19:34:01.259Z,100723.72
2022-08-03T19:36:35.509Z,100723.19
2022-08-03T19:39:15.055Z,100730.25
2022-08-03T19:41:51.404Z,100727.84
2022-08-03T19:44:30.247Z,100727.53
2022-08-03T19:47:07.142Z,100727.16
2022-08-03T19:50:04.584Z,100727.81
2022-08-03T19:52:31.461Z,100737.09
2022-08-03T19:55:06.969Z,100744.44
2022-08-03T19:57:37.977Z,100744.34
2022-08-03T20:00:13.978Z,100703.03
2022-08-03T20:02:46.149Z,100730.25
2022-08-03T20:05:18.190Z,100748.16
2022-08-03T20:07:48.683Z,100721.81
2022-08-03T20:10:19.181Z,100720.53
2022-08-03T20:12:49.450Z,100718.53
2022-08-03T20:15:30.925Z,100738.69
2022-08-03T20:18:02.527Z,100714.75
2022-08-03T20:20:33.836Z,100714.53
2022-08-03T20:23:11.513Z,100735.16
2022-08-03T20:25:57.024Z,100734.47
2022-08-03T20:28:32.816Z,100721.16
2022-08-03T20:31:05.534Z,100709.53
2022-08-03T20:33:46.395Z,100710.66
2022-08-03T20:36:18.657Z,100747.22
2022-08-03T20:38:49.049Z,100721.78
2022-08-03T20:41:20.020Z,100747.06
2022-08-03T20:43:51.072Z,100719.66
2022-08-03T20:46:31.293Z,100738.84
2022-08-03T20:49:06.988Z,100737.22
2022-08-03T20:51:49.114Z,100717.28
2022-08-03T20:54:28.756Z,100742.63
2022-08-03T20:57:00.230Z,100728.91
2022-08-03T20:59:36.928Z,100736.84
2022-08-03T21:02:19.736Z,100756.53
2022-08-03T21:05:08.431Z,100751.78
2022-08-03T21:07:45.560Z,100743.81
2022-08-03T21:10:16.680Z,100716.16
2022-08-03T21:12:52.181Z,100740.66
2022-08-03T21:16:04.760Z,100718.06
2022-08-03T21:18:15.243Z,100744.69
2022-08-03T21:20:50.310Z,100737.94
2022-08-03T21:23:35.167Z,100729.53
2022-08-03T21:26:12.032Z,100732.81
2022-08-03T21:28:41.481Z,100726.69
2022-08-03T21:31:11.182Z,100753.78
2022-08-03T21:33:39.884Z,100759.66
2022-08-03T21:36:14.440Z,100741.63
2022-08-03T21:38:55.806Z,100749.94
2022-08-03T21:41:26.009Z,100760.97
2022-08-03T21:43:54.307Z,100750.78
2022-08-03T21:46:23.511Z,100763.00
2022-08-03T21:50:07.443Z,100750.56
2022-08-03T21:51:59.106Z,100731.63
2022-08-03T21:54:35.714Z,100736.06
2022-08-03T21:57:06.014Z,100751.19
2022-08-03T21:59:40.739Z,100743.16
2022-08-03T22:02:12.242Z,100752.16
2022-08-03T22:04:56.037Z,100737.03
2022-08-03T22:07:31.963Z,100747.53
2022-08-03T22:10:04.956Z,100718.19
2022-08-03T22:12:34.354Z,100721.16
2022-08-03T22:15:04.854Z,100737.41
2022-08-03T22:17:55.384Z,100727.28
2022-08-03T22:20:25.016Z,100759.72
2022-08-03T22:23:04.554Z,100726.19
2022-08-03T22:25:36.596Z,100745.00
2022-08-03T22:28:10.487Z,100731.34
2022-08-03T22:30:40.153Z,100736.44
2022-08-03T22:33:13.026Z,100742.53
2022-08-03T22:35:48.271Z,100724.19
2022-08-03T22:38:19.668Z,100712.50
2022-08-03T22:40:51.453Z,100720.50
2022-08-03T22:43:25.166Z,100743.41
2022-08-03T22:46:09.831Z,100715.44
2022-08-03T22:48:41.926Z,100731.41
2022-08-03T22:51:11.944Z,100734.84
2022-08-03T22:53:45.485Z,100741.13
2022-08-03T22:56:15.346Z,100721.22
2022-08-03T22:58:44.244Z,100722.00
2022-08-03T23:01:16.680Z,100733.09
2022-08-03T23:03:59.853Z,100732.31
2022-08-03T23:06:43.354Z,100729.66
2022-08-03T23:09:16.520Z,100718.06
2022-08-03T23:11:46.213Z,100722.06
2022-08-03T23:14:17.456Z,100714.97
2022-08-03T23:16:48.695Z,100726.47
2022-08-03T23:19:25.584Z,100733.69
2022-08-03T23:22:02.279Z,100712.53
2022-08-03T23:24:37.094Z,100729.44
2022-08-03T23:27:06.248Z,100709.91
2022-08-03T23:29:37.742Z,100707.94
2022-08-03T23:32:07.368Z,100710.53
2022-08-03T23:34:57.653Z,100742.59
2022-08-03T23:38:04.402Z,100733.63
2022-08-03T23:40:31.399Z,100739.59
2022-08-03T23:43:03.798Z,100724.06
2022-08-03T23:45:36.385Z,100739.47
2022-08-03T23:48:06.428Z,100725.66
2022-08-03T23:50:46.045Z,100735.34
2022-08-03T23:53:21.973Z,100708.59
2022-08-03T23:56:12.724Z,100742.75
2022-08-03T23:58:56.046Z,100742.34
